sensor_id;sensor_type;location;lat;lon;timestamp;pressure;altitude;pressure_sealevel;temperature;humidity
8280;BME280;8335;42.646;23.380;2023-07-28T00:01:17;145475.34;;;15.80;63.58
8280;BME280;8335;42.646;23.380;2023-07-28T00:03:44;145482.81;;;15.83;62.83
8280;BME280;8335;42.646;23.380;2023-07-28T00:06:11;145471.56;;;15.78;61.83
8280;BME280;8335;42.646;23.380;2023-07-28T00:08:39;145467.84;;;15.77;62.02
8280;BME280;8335;42.646;23.380;2023-07-28T00:11:09;145471.56;;;15.78;61.90
8280;BME280;8335;42.646;23.380;2023-07-28T00:13:37;145466.59;;;15.76;62.32
8280;BME280;8335;42.646;23.380;2023-07-28T00:16:04;145460.38;;;15.74;62.42
8280;BME280;8335;42.646;23.380;2023-07-28T00:18:31;145452.84;;;15.71;63.59
8280;BME280;8335;42.646;23.380;2023-07-28T00:20:58;145441.66;;;15.66;62.95
8280;BME280;8335;42.646;23.380;2023-07-28T00:23:25;145452.84;;;15.71;62.21
8280;BME280;8335;42.646;23.380;2023-07-28T00:25:53;145439.16;;;15.65;62.43
8280;BME280;8335;42.646;23.380;2023-07-28T00:28:20;145424.13;;;15.59;62.62
8280;BME280;8335;42.646;23.380;2023-07-28T00:30:48;145425.38;;;15.59;63.34
8280;BME280;8335;42.646;23.380;2023-07-28T00:33:15;145411.63;;;15.54;63.33
8280;BME280;8335;42.646;23.380;2023-07-28T00:35:42;145411.63;;;15.54;63.00
8280;BME280;8335;42.646;23.380;2023-07-28T00:38:09;145410.38;;;15.53;63.17
8280;BME280;8335;42.646;23.380;2023-07-28T00:40:36;145395.41;;;15.47;63.00
8280;BME280;8335;42.646;23.380;2023-07-28T00:43:04;145384.16;;;15.42;63.02
8280;BME280;8335;42.646;23.380;2023-07-28T00:45:33;145376.69;;;15.39;62.94
8280;BME280;8335;42.646;23.380;2023-07-28T00:48:00;145366.69;;;15.35;63.28
8280;BME280;8335;42.646;23.380;2023-07-28T00:50:27;145359.22;;;15.32;63.37
8280;BME280;8335;42.646;23.380;2023-07-28T00:52:55;145353.00;;;15.30;64.33
8280;BME280;8335;42.646;23.380;2023-07-28T00:55:22;145341.75;;;15.25;64.08
8280;BME280;8335;42.646;23.380;2023-07-28T00:57:50;145360.47;;;15.33;64.57
8280;BME280;8335;42.646;23.380;2023-07-28T01:00:18;145346.72;;;15.27;65.80
8280;BME280;8335;42.646;23.380;2023-07-28T01:02:45;145335.53;;;15.23;65.76
8280;BME280;8335;42.646;23.380;2023-07-28T01:05:11;145333.03;;;15.22;65.79
8280;BME280;8335;42.646;23.380;2023-07-28T01:07:44;145296.81;;;15.07;64.66
8280;BME280;8335;42.646;23.380;2023-07-28T01:10:17;145279.34;;;15.00;65.39
8280;BME280;8335;42.646;23.380;2023-07-28T01:12:45;145253.19;;;14.89;66.03
8280;BME280;8335;42.646;23.380;2023-07-28T01:15:12;145210.78;;;14.72;67.04
8280;BME280;8335;42.646;23.380;2023-07-28T01:17:42;145149.66;;;14.47;68.07
8280;BME280;8335;42.646;23.380;2023-07-28T01:20:09;145135.88;;;14.41;69.06
8280;BME280;8335;42.646;23.380;2023-07-28T01:22:47;145088.53;;;14.22;70.19
8280;BME280;8335;42.646;23.380;2023-07-28T01:25:18;145061.09;;;14.11;70.91
8280;BME280;8335;42.646;23.380;2023-07-28T01:27:49;145051.09;;;14.07;71.42
8280;BME280;8335;42.646;23.380;2023-07-28T01:30:16;145013.72;;;13.91;72.02
8280;BME280;8335;42.646;23.380;2023-07-28T01:32:45;145012.47;;;13.91;72.03
8280;BME280;8335;42.646;23.380;2023-07-28T01:35:11;145008.75;;;13.89;72.46
8280;BME280;8335;42.646;23.380;2023-07-28T01:37:38;144986.31;;;13.80;73.01
8280;BME280;8335;42.646;23.380;2023-07-28T01:40:06;144965.09;;;13.71;73.84
8280;BME280;8335;42.646;23.380;2023-07-28T01:42:33;144950.19;;;13.65;74.03
8280;BME280;8335;42.646;23.380;2023-07-28T01:45:01;144937.72;;;13.60;74.39
8280;BME280;8335;42.646;23.380;2023-07-28T01:47:28;144930.22;;;13.57;74.92
8280;BME280;8335;42.646;23.380;2023-07-28T01:49:55;144938.94;;;13.61;75.20
8280;BME280;8335;42.646;23.380;2023-07-28T01:52:22;144922.75;;;13.54;75.21
8280;BME280;8335;42.646;23.380;2023-07-28T01:54:49;144924.00;;;13.55;75.08
8280;BME280;8335;42.646;23.380;2023-07-28T01:57:15;144938.94;;;13.61;74.86
8280;BME280;8335;42.646;23.380;2023-07-28T01:59:42;144930.22;;;13.57;75.08
8280;BME280;8335;42.646;23.380;2023-07-28T02:02:10;144942.69;;;13.62;74.99
8280;BME280;8335;42.646;23.380;2023-07-28T02:04:37;144942.69;;;13.62;74.71
8280;BME280;8335;42.646;23.380;2023-07-28T02:07:04;144935.22;;;13.59;75.13
8280;BME280;8335;42.646;23.380;2023-07-28T02:09:31;144933.97;;;13.59;73.98
8280;BME280;8335;42.646;23.380;2023-07-28T02:11:58;144906.53;;;13.47;73.87
8280;BME280;8335;42.646;23.380;2023-07-28T02:14:24;144882.88;;;13.38;74.06
8280;BME280;8335;42.646;23.380;2023-07-28T02:16:51;144911.50;;;13.49;73.48
8280;BME280;8335;42.646;23.380;2023-07-28T02:19:19;144915.28;;;13.51;74.03
8280;BME280;8335;42.646;23.380;2023-07-28T02:21:46;144936.47;;;13.60;73.83
8280;BME280;8335;42.646;23.380;2023-07-28T02:24:13;144957.63;;;13.68;73.48
8280;BME280;8335;42.646;23.380;2023-07-28T02:26:40;144956.41;;;13.68;73.13
8280;BME280;8335;42.646;23.380;2023-07-28T02:29:06;144955.16;;;13.67;73.53
8280;BME280;8335;42.646;23.380;2023-07-28T02:31:33;144961.38;;;13.70;73.47
8280;BME280;8335;42.646;23.380;2023-07-28T02:34:00;144961.38;;;13.70;73.66
8280;BME280;8335;42.646;23.380;2023-07-28T02:36:28;144961.38;;;13.70;73.93
8280;BME280;8335;42.646;23.380;2023-07-28T02:38:55;144958.88;;;13.69;73.34
8280;BME280;8335;42.646;23.380;2023-07-28T02:41:21;144952.66;;;13.66;74.43
8280;BME280;8335;42.646;23.380;2023-07-28T02:43:48;144956.41;;;13.68;73.80
8280;BME280;8335;42.646;23.380;2023-07-28T02:46:15;144961.38;;;13.70;74.00
8280;BME280;8335;42.646;23.380;2023-07-28T02:48:42;144957.63;;;13.68;73.94
8280;BME280;8335;42.646;23.380;2023-07-28T02:51:08;144948.94;;;13.65;74.53
8280;BME280;8335;42.646;23.380;2023-07-28T02:53:36;144953.91;;;13.67;74.05
8280;BME280;8335;42.646;23.380;2023-07-28T02:56:03;144950.19;;;13.65;73.92
8280;BME280;8335;42.646;23.380;2023-07-28T02:58:30;144957.63;;;13.68;74.03
8280;BME280;8335;42.646;23.380;2023-07-28T03:00:57;144966.38;;;13.72;73.12
8280;BME280;8335;42.646;23.380;2023-07-28T03:03:24;144971.34;;;13.74;72.41
8280;BME280;8335;42.646;23.380;2023-07-28T03:05:52;144981.31;;;13.78;71.98
8280;BME280;8335;42.646;23.380;2023-07-28T03:08:19;144977.56;;;13.76;72.31
8280;BME280;8335;42.646;23.380;2023-07-28T03:10:48;144971.34;;;13.74;71.26
8280;BME280;8335;42.646;23.380;2023-07-28T03:13:14;144980.06;;;13.77;70.46
8280;BME280;8335;42.646;23.380;2023-07-28T03:15:41;144977.56;;;13.76;70.57
8280;BME280;8335;42.646;23.380;2023-07-28T03:18:08;144971.34;;;13.74;70.59
8280;BME280;8335;42.646;23.380;2023-07-28T03:20:35;144968.88;;;13.73;70.68
8280;BME280;8335;42.646;23.380;2023-07-28T03:23:01;144976.34;;;13.76;70.84
8280;BME280;8335;42.646;23.380;2023-07-28T03:25:28;144982.53;;;13.78;71.56
8280;BME280;8335;42.646;23.380;2023-07-28T03:27:56;144992.53;;;13.83;70.93
8280;BME280;8335;42.646;23.380;2023-07-28T03:30:23;145019.97;;;13.94;71.55
8280;BME280;8335;42.646;23.380;2023-07-28T03:32:50;145083.53;;;14.20;70.52
8280;BME280;8335;42.646;23.380;2023-07-28T03:35:16;145195.81;;;14.66;68.94
8280;BME280;8335;42.646;23.380;2023-07-28T03:37:43;145330.50;;;15.21;66.72
8280;BME280;8335;42.646;23.380;2023-07-28T03:40:10;145466.59;;;15.76;64.53
8280;BME280;8335;42.646;23.380;2023-07-28T03:42:37;145625.13;;;16.41;62.67
8280;BME280;8335;42.646;23.380;2023-07-28T03:45:07;145763.84;;;16.97;60.67
8280;BME280;8335;42.646;23.380;2023-07-28T03:47:34;145910.03;;;17.57;58.04
8280;BME280;8335;42.646;23.380;2023-07-28T03:50:02;146077.63;;;18.25;55.59
8280;BME280;8335;42.646;23.380;2023-07-28T03:52:29;146207.72;;;18.78;54.41
8280;BME280;8335;42.646;23.380;2023-07-28T03:54:56;146320.38;;;19.24;52.63
8280;BME280;8335;42.646;23.380;2023-07-28T03:57:22;146395.44;;;19.55;51.11
8280;BME280;8335;42.646;23.380;2023-07-28T03:59:49;146504.41;;;19.99;49.60
8280;BME280;8335;42.646;23.380;2023-07-28T04:02:17;146584.56;;;20.31;48.56
8280;BME280;8335;42.646;23.380;2023-07-28T04:04:44;146624.69;;;20.48;48.23
8280;BME280;8335;42.646;23.380;2023-07-28T04:07:11;146687.34;;;20.73;48.14
8280;BME280;8335;42.646;23.380;2023-07-28T04:09:37;146775.03;;;21.09;46.76
8280;BME280;8335;42.646;23.380;2023-07-28T04:12:05;146836.47;;;21.34;46.15
8280;BME280;8335;42.646;23.380;2023-07-28T04:14:31;146912.97;;;21.65;45.37
8280;BME280;8335;42.646;23.380;2023-07-28T04:16:58;147006.97;;;22.03;44.42
8280;BME280;8335;42.646;23.380;2023-07-28T04:19:26;147108.59;;;22.44;43.55
8280;BME280;8335;42.646;23.380;2023-07-28T04:21:54;147257.94;;;23.05;42.10
8280;BME280;8335;42.646;23.380;2023-07-28T04:24:21;147432.44;;;23.76;40.00
8280;BME280;8335;42.646;23.380;2023-07-28T04:26:47;147617.09;;;24.51;38.74
8280;BME280;8335;42.646;23.380;2023-07-28T04:29:15;147816.88;;;25.32;37.00
8280;BME280;8335;42.646;23.380;2023-07-28T04:31:42;148026.88;;;26.17;35.21
8280;BME280;8335;42.646;23.380;2023-07-28T04:34:08;148189.16;;;26.82;34.04
8280;BME280;8335;42.646;23.380;2023-07-28T04:36:37;148385.47;;;27.62;32.61
8280;BME280;8335;42.646;23.380;2023-07-28T04:39:03;148547.91;;;28.28;32.17
8280;BME280;8335;42.646;23.380;2023-07-28T04:41:30;148692.75;;;28.86;31.07
8280;BME280;8335;42.646;23.380;2023-07-28T04:43:57;148821.34;;;29.38;30.34
8280;BME280;8335;42.646;23.380;2023-07-28T04:46:24;148946.16;;;29.88;29.24
8280;BME280;8335;42.646;23.380;2023-07-28T04:48:50;149130.22;;;30.63;28.54
8280;BME280;8335;42.646;23.380;2023-07-28T04:51:17;149349.81;;;31.52;27.49
8280;BME280;8335;42.646;23.380;2023-07-28T04:53:45;149580.84;;;32.45;26.51
8280;BME280;8335;42.646;23.380;2023-07-28T04:56:12;149795.53;;;33.31;25.21
8280;BME280;8335;42.646;23.380;2023-07-28T04:58:39;149967.38;;;34.01;24.24
8280;BME280;8335;42.646;23.380;2023-07-28T05:01:05;150144.34;;;34.72;23.87
8280;BME280;8335;42.646;23.380;2023-07-28T05:03:34;150324.00;;;35.44;22.91
8280;BME280;8335;42.646;23.380;2023-07-28T05:06:03;150474.50;;;36.05;21.66
8280;BME280;8335;42.646;23.380;2023-07-28T05:08:29;150578.28;;;36.47;21.38
8280;BME280;8335;42.646;23.380;2023-07-28T05:10:58;150685.88;;;36.90;20.99
8280;BME280;8335;42.646;23.380;2023-07-28T05:13:24;150747.88;;;37.15;20.37
8280;BME280;8335;42.646;23.380;2023-07-28T05:15:51;150660.56;;;36.80;20.58
8280;BME280;8335;42.646;23.380;2023-07-28T05:18:18;150670.66;;;36.84;20.74
8280;BME280;8335;42.646;23.380;2023-07-28T05:20:45;150628.91;;;36.67;21.07
8280;BME280;8335;42.646;23.380;2023-07-28T05:23:12;150525.13;;;36.25;21.18
8280;BME280;8335;42.646;23.380;2023-07-28T05:25:38;150404.91;;;35.77;21.50
8280;BME280;8335;42.646;23.380;2023-07-28T05:28:06;150342.97;;;35.52;21.31
8280;BME280;8335;42.646;23.380;2023-07-28T05:30:33;150274.63;;;35.24;21.70
8280;BME280;8335;42.646;23.380;2023-07-28T05:33:00;150255.66;;;35.17;22.28
8280;BME280;8335;42.646;23.380;2023-07-28T05:35:27;150274.63;;;35.24;22.41
8280;BME280;8335;42.646;23.380;2023-07-28T06:59:37;149990.16;;;34.10;22.80
8280;BME280;8335;42.646;23.380;2023-07-28T07:02:05;150083.69;;;34.47;22.54
8280;BME280;8335;42.646;23.380;2023-07-28T07:04:32;150164.59;;;34.80;21.88
8280;BME280;8335;42.646;23.380;2023-07-28T07:06:59;150154.47;;;34.76;22.29
8280;BME280;8335;42.646;23.380;2023-07-28T07:09:26;150183.56;;;34.88;22.59
8280;BME280;8335;42.646;23.380;2023-07-28T07:11:52;149942.13;;;33.90;23.06
8280;BME280;8335;42.646;23.380;2023-07-28T07:14:19;149943.38;;;33.91;23.45
8280;BME280;8335;42.646;23.380;2023-07-28T07:16:48;150069.78;;;34.42;23.13
8280;BME280;8335;42.646;23.380;2023-07-28T07:19:15;150126.66;;;34.65;22.22
8280;BME280;8335;42.646;23.380;2023-07-28T07:21:42;150016.66;;;34.20;22.27
8280;BME280;8335;42.646;23.380;2023-07-28T07:24:10;149986.38;;;34.08;22.90
8280;BME280;8335;42.646;23.380;2023-07-28T07:26:38;149833.44;;;33.47;23.84
8280;BME280;8335;42.646;23.380;2023-07-28T07:29:05;149901.66;;;33.74;23.83
8280;BME280;8335;42.646;23.380;2023-07-28T07:31:32;149813.25;;;33.38;23.78
8280;BME280;8335;42.646;23.380;2023-07-28T07:34:00;149832.19;;;33.46;23.81
8280;BME280;8335;42.646;23.380;2023-07-28T07:36:29;149777.84;;;33.24;24.45
8280;BME280;8335;42.646;23.380;2023-07-28T07:38:56;149971.22;;;34.02;23.88
8280;BME280;8335;42.646;23.380;2023-07-28T07:41:23;150017.91;;;34.21;23.59
8280;BME280;8335;42.646;23.380;2023-07-28T07:43:52;149873.84;;;33.63;23.34
8280;BME280;8335;42.646;23.380;2023-07-28T07:46:19;149902.94;;;33.75;23.75
8280;BME280;8335;42.646;23.380;2023-07-28T07:48:46;149914.31;;;33.79;23.62
8280;BME280;8335;42.646;23.380;2023-07-28T07:51:15;149842.28;;;33.50;24.06
8280;BME280;8335;42.646;23.380;2023-07-28T07:53:42;149812.00;;;33.38;23.83
8280;BME280;8335;42.646;23.380;2023-07-28T07:56:09;149713.44;;;32.98;24.62
8280;BME280;8335;42.646;23.380;2023-07-28T07:58:36;149737.44;;;33.08;24.72
8280;BME280;8335;42.646;23.380;2023-07-28T08:01:03;149891.53;;;33.70;24.10
8280;BME280;8335;42.646;23.380;2023-07-28T08:03:30;149921.88;;;33.82;23.81
8280;BME280;8335;42.646;23.380;2023-07-28T08:05:57;150039.44;;;34.30;23.27
8280;BME280;8335;42.646;23.380;2023-07-28T08:08:25;150234.19;;;35.08;22.98
8280;BME280;8335;42.646;23.380;2023-07-28T08:10:52;150196.22;;;34.93;22.20
8280;BME280;8335;42.646;23.380;2023-07-28T08:13:19;150144.34;;;34.72;22.32
8280;BME280;8335;42.646;23.380;2023-07-28T08:15:47;150240.50;;;35.11;22.29
8280;BME280;8335;42.646;23.380;2023-07-28T08:18:14;150331.56;;;35.47;22.39
8280;BME280;8335;42.646;23.380;2023-07-28T08:20:41;150420.06;;;35.83;21.73
8280;BME280;8335;42.646;23.380;2023-07-28T08:23:07;150399.84;;;35.75;21.66
8280;BME280;8335;42.646;23.380;2023-07-28T08:25:36;150379.63;;;35.67;21.52
8280;BME280;8335;42.646;23.380;2023-07-28T08:28:03;150261.97;;;35.19;21.95
8280;BME280;8335;42.646;23.380;2023-07-28T08:30:30;150143.06;;;34.71;22.55
8280;BME280;8335;42.646;23.380;2023-07-28T08:32:57;150207.59;;;34.97;22.09
8280;BME280;8335;42.646;23.380;2023-07-28T08:35:24;150345.47;;;35.53;22.67
8280;BME280;8335;42.646;23.380;2023-07-28T08:37:51;150387.19;;;35.70;21.07
8280;BME280;8335;42.646;23.380;2023-07-28T08:40:18;150282.19;;;35.27;21.62
8280;BME280;8335;42.646;23.380;2023-07-28T08:42:46;150272.09;;;35.23;21.79
8280;BME280;8335;42.646;23.380;2023-07-28T08:45:13;150191.16;;;34.91;22.41
8280;BME280;8335;42.646;23.380;2023-07-28T08:47:40;150187.34;;;34.89;22.71
8280;BME280;8335;42.646;23.380;2023-07-28T08:50:07;150278.41;;;35.26;22.19
8280;BME280;8335;42.646;23.380;2023-07-28T08:52:34;150385.94;;;35.69;22.49
8280;BME280;8335;42.646;23.380;2023-07-28T08:55:00;150511.19;;;36.20;21.31
8280;BME280;8335;42.646;23.380;2023-07-28T08:57:28;150630.16;;;36.68;21.15
8280;BME280;8335;42.646;23.380;2023-07-28T08:59:56;150606.09;;;36.58;21.22
8280;BME280;8335;42.646;23.380;2023-07-28T09:02:23;150540.31;;;36.31;21.10
8280;BME280;8335;42.646;23.380;2023-07-28T09:04:50;150570.72;;;36.44;21.56
8280;BME280;8335;42.646;23.380;2023-07-28T09:07:17;150466.94;;;36.02;21.68
8280;BME280;8335;42.646;23.380;2023-07-28T09:09:44;150536.50;;;36.30;20.50
8280;BME280;8335;42.646;23.380;2023-07-28T09:12:11;150471.97;;;36.04;21.07
8280;BME280;8335;42.646;23.380;2023-07-28T09:14:38;150628.91;;;36.67;20.09
8280;BME280;8335;42.646;23.380;2023-07-28T09:17:11;150693.47;;;36.93;20.36
8280;BME280;8335;42.646;23.380;2023-07-28T09:19:51;150664.34;;;36.81;20.46
8280;BME280;8335;42.646;23.380;2023-07-28T09:22:18;150642.84;;;36.73;20.48
8280;BME280;8335;42.646;23.380;2023-07-28T09:24:46;150721.31;;;37.04;20.09
8280;BME280;8335;42.646;23.380;2023-07-28T09:27:19;150726.38;;;37.06;20.88
8280;BME280;8335;42.646;23.380;2023-07-28T09:29:48;150732.72;;;37.09;20.22
8280;BME280;8335;42.646;23.380;2023-07-28T09:32:16;150651.66;;;36.76;20.22
8280;BME280;8335;42.646;23.380;2023-07-28T09:35:05;150701.09;;;36.96;20.89
8280;BME280;8335;42.646;23.380;2023-07-28T09:37:34;150597.25;;;36.54;20.58
8280;BME280;8335;42.646;23.380;2023-07-28T09:40:02;150416.28;;;35.81;20.67
8280;BME280;8335;42.646;23.380;2023-07-28T09:42:30;150523.84;;;36.25;21.17
8280;BME280;8335;42.646;23.380;2023-07-28T09:44:57;150694.72;;;36.93;20.61
8280;BME280;8335;42.646;23.380;2023-07-28T09:47:25;150741.56;;;37.12;20.48
8280;BME280;8335;42.646;23.380;2023-07-28T09:49:54;150608.69;;;36.59;20.91
8280;BME280;8335;42.646;23.380;2023-07-28T09:52:24;150660.56;;;36.80;20.54
8280;BME280;8335;42.646;23.380;2023-07-28T09:54:55;150674.47;;;36.85;20.12
8280;BME280;8335;42.646;23.380;2023-07-28T09:57:25;150620.03;;;36.63;20.60
8280;BME280;8335;42.646;23.380;2023-07-28T09:59:54;150506.13;;;36.18;20.39
8280;BME280;8335;42.646;23.380;2023-07-28T10:02:22;150348.00;;;35.54;22.18
8280;BME280;8335;42.646;23.380;2023-07-28T10:04:51;150336.59;;;35.49;21.67
8280;BME280;8335;42.646;23.380;2023-07-28T10:07:18;150302.41;;;35.36;21.67
8280;BME280;8335;42.646;23.380;2023-07-28T10:09:45;150292.31;;;35.32;22.08
8280;BME280;8335;42.646;23.380;2023-07-28T10:12:17;150396.06;;;35.73;21.49
8280;BME280;8335;42.646;23.380;2023-07-28T10:14:44;150375.84;;;35.65;21.50
8280;BME280;8335;42.646;23.380;2023-07-28T10:17:15;150445.41;;;35.93;21.36
8280;BME280;8335;42.646;23.380;2023-07-28T10:19:42;150521.31;;;36.24;20.92
8280;BME280;8335;42.646;23.380;2023-07-28T10:22:11;150580.81;;;36.48;21.73
8280;BME280;8335;42.646;23.380;2023-07-28T10:24:49;150533.94;;;36.29;21.95
8280;BME280;8335;42.646;23.380;2023-07-28T10:27:28;150512.44;;;36.20;22.20
8280;BME280;8335;42.646;23.380;2023-07-28T10:29:56;150507.41;;;36.18;21.25
8280;BME280;8335;42.646;23.380;2023-07-28T10:32:26;150470.72;;;36.03;21.03
8280;BME280;8335;42.646;23.380;2023-07-28T10:34:59;150428.97;;;35.87;21.70
8280;BME280;8335;42.646;23.380;2023-07-28T10:37:27;150415.03;;;35.81;21.48
8280;BME280;8335;42.646;23.380;2023-07-28T10:40:25;150225.31;;;35.05;21.80
8280;BME280;8335;42.646;23.380;2023-07-28T10:42:53;150125.38;;;34.64;22.44
8280;BME280;8335;42.646;23.380;2023-07-28T10:45:21;149971.22;;;34.02;22.65
8280;BME280;8335;42.646;23.380;2023-07-28T10:47:49;149805.59;;;33.35;23.64
8280;BME280;8335;42.646;23.380;2023-07-28T10:50:15;149657.84;;;32.76;24.37
8280;BME280;8335;42.646;23.380;2023-07-28T10:52:45;149689.44;;;32.89;24.34
8280;BME280;8335;42.646;23.380;2023-07-28T10:55:13;149743.75;;;33.10;23.87
8280;BME280;8335;42.646;23.380;2023-07-28T10:57:41;149766.47;;;33.20;24.39
8280;BME280;8335;42.646;23.380;2023-07-28T11:00:09;149771.50;;;33.22;24.65
8280;BME280;8335;42.646;23.380;2023-07-28T11:02:38;149758.91;;;33.17;24.30
8280;BME280;8335;42.646;23.380;2023-07-28T11:05:09;149683.09;;;32.86;25.34
8280;BME280;8335;42.646;23.380;2023-07-28T11:07:37;149597.25;;;32.51;24.80
8280;BME280;8335;42.646;23.380;2023-07-28T11:10:05;149510.13;;;32.16;25.75
8280;BME280;8335;42.646;23.380;2023-07-28T11:12:33;149404.06;;;31.73;26.43
8280;BME280;8335;42.646;23.380;2023-07-28T11:15:00;149266.50;;;31.18;26.70
8280;BME280;8335;42.646;23.380;2023-07-28T11:17:27;149125.19;;;30.61;26.43
8280;BME280;8335;42.646;23.380;2023-07-28T11:19:53;149097.44;;;30.50;27.32
8280;BME280;8335;42.646;23.380;2023-07-28T11:22:21;149064.69;;;30.36;26.33
8280;BME280;8335;42.646;23.380;2023-07-28T11:24:51;149062.13;;;30.35;27.15
8280;BME280;8335;42.646;23.380;2023-07-28T11:27:19;149076.00;;;30.41;27.39
8280;BME280;8335;42.646;23.380;2023-07-28T11:29:46;149067.22;;;30.37;27.60
8280;BME280;8335;42.646;23.380;2023-07-28T11:32:15;149039.47;;;30.26;27.59
8280;BME280;8335;42.646;23.380;2023-07-28T11:34:42;149036.94;;;30.25;27.48
8280;BME280;8335;42.646;23.380;2023-07-28T11:37:10;149009.19;;;30.14;27.94
8280;BME280;8335;42.646;23.380;2023-07-28T11:39:37;148980.19;;;30.02;28.72
8280;BME280;8335;42.646;23.380;2023-07-28T11:42:06;148978.94;;;30.02;27.66
8280;BME280;8335;42.646;23.380;2023-07-28T11:44:35;148949.91;;;29.90;27.67
8280;BME280;8335;42.646;23.380;2023-07-28T11:47:05;148962.53;;;29.95;28.20
8280;BME280;8335;42.646;23.380;2023-07-28T11:49:31;148980.19;;;30.02;29.00
8280;BME280;8335;42.646;23.380;2023-07-28T11:51:58;149007.94;;;30.13;29.95
8280;BME280;8335;42.646;23.380;2023-07-28T11:54:26;149004.16;;;30.12;29.05
8280;BME280;8335;42.646;23.380;2023-07-28T11:56:55;149035.69;;;30.25;28.34
8280;BME280;8335;42.646;23.380;2023-07-28T11:59:23;149052.06;;;30.31;28.17
8280;BME280;8335;42.646;23.380;2023-07-28T12:01:53;149030.66;;;30.23;28.02
8280;BME280;8335;42.646;23.380;2023-07-28T12:04:22;148970.06;;;29.98;27.64
8280;BME280;8335;42.646;23.380;2023-07-28T12:07:07;148933.53;;;29.83;28.47
8280;BME280;8335;42.646;23.380;2023-07-28T12:09:49;148850.28;;;29.50;28.87
8280;BME280;8335;42.646;23.380;2023-07-28T12:12:20;148831.41;;;29.42;28.37
8280;BME280;8335;42.646;23.380;2023-07-28T12:14:47;148862.97;;;29.55;29.13
8280;BME280;8335;42.646;23.380;2023-07-28T12:17:19;148915.88;;;29.76;29.54
8280;BME280;8335;42.646;23.380;2023-07-28T12:19:57;148970.06;;;29.98;28.41
8280;BME280;8335;42.646;23.380;2023-07-28T12:22:24;148991.50;;;30.07;29.47
8280;BME280;8335;42.646;23.380;2023-07-28T12:24:51;149006.66;;;30.13;27.43
8280;BME280;8335;42.646;23.380;2023-07-28T12:27:17;148958.75;;;29.94;27.10
8280;BME280;8335;42.646;23.380;2023-07-28T12:29:46;148913.38;;;29.75;27.33
8280;BME280;8335;42.646;23.380;2023-07-28T12:32:12;148931.00;;;29.82;26.93
8280;BME280;8335;42.646;23.380;2023-07-28T12:34:40;148909.59;;;29.74;29.04
8280;BME280;8335;42.646;23.380;2023-07-28T12:37:09;148864.22;;;29.55;30.11
8280;BME280;8335;42.646;23.380;2023-07-28T12:39:37;148902.00;;;29.71;30.02
8280;BME280;8335;42.646;23.380;2023-07-28T12:42:05;148953.69;;;29.92;29.44
8280;BME280;8335;42.646;23.380;2023-07-28T12:44:32;148956.19;;;29.93;27.18
8280;BME280;8335;42.646;23.380;2023-07-28T12:46:59;148957.47;;;29.93;27.39
8280;BME280;8335;42.646;23.380;2023-07-28T12:49:26;148933.53;;;29.83;27.18
8280;BME280;8335;42.646;23.380;2023-07-28T12:51:55;148972.59;;;29.99;29.34
8280;BME280;8335;42.646;23.380;2023-07-28T12:54:22;148990.25;;;30.06;28.79
8280;BME280;8335;42.646;23.380;2023-07-28T12:56:50;148999.13;;;30.10;28.70
8280;BME280;8335;42.646;23.380;2023-07-28T12:59:16;149035.69;;;30.25;29.16
8280;BME280;8335;42.646;23.380;2023-07-28T13:01:43;149059.63;;;30.34;28.83
8280;BME280;8335;42.646;23.380;2023-07-28T13:04:10;149045.75;;;30.29;28.57
8280;BME280;8335;42.646;23.380;2023-07-28T13:06:37;149059.63;;;30.34;29.08
8280;BME280;8335;42.646;23.380;2023-07-28T13:09:07;149068.47;;;30.38;28.98
8280;BME280;8335;42.646;23.380;2023-07-28T13:11:34;149072.25;;;30.39;28.63
8280;BME280;8335;42.646;23.380;2023-07-28T13:14:01;149077.28;;;30.41;28.82
8280;BME280;8335;42.646;23.380;2023-07-28T13:16:27;149089.91;;;30.47;28.58
8280;BME280;8335;42.646;23.380;2023-07-28T13:18:54;149083.59;;;30.44;28.72
8280;BME280;8335;42.646;23.380;2023-07-28T13:21:22;149105.03;;;30.53;29.10
8280;BME280;8335;42.646;23.380;2023-07-28T13:23:49;149110.06;;;30.55;28.99
8280;BME280;8335;42.646;23.380;2023-07-28T13:26:17;149100.00;;;30.51;28.82
8280;BME280;8335;42.646;23.380;2023-07-28T13:28:43;149117.66;;;30.58;28.84
8280;BME280;8335;42.646;23.380;2023-07-28T13:31:12;149105.03;;;30.53;29.01
8280;BME280;8335;42.646;23.380;2023-07-28T13:33:39;149103.78;;;30.52;28.96
8280;BME280;8335;42.646;23.380;2023-07-28T13:36:05;149110.06;;;30.55;28.79
8280;BME280;8335;42.646;23.380;2023-07-28T13:38:33;149120.16;;;30.59;28.45
8280;BME280;8335;42.646;23.380;2023-07-28T13:41:00;149102.50;;;30.52;29.06
8280;BME280;8335;42.646;23.380;2023-07-28T13:43:28;149107.53;;;30.54;28.58
8280;BME280;8335;42.646;23.380;2023-07-28T13:45:54;149087.38;;;30.46;28.49
8280;BME280;8335;42.646;23.380;2023-07-28T13:48:21;149073.50;;;30.40;29.28
8280;BME280;8335;42.646;23.380;2023-07-28T13:50:48;149081.03;;;30.43;29.11
8280;BME280;8335;42.646;23.380;2023-07-28T13:53:14;149058.38;;;30.34;28.96
8280;BME280;8335;42.646;23.380;2023-07-28T13:55:41;149045.75;;;30.29;28.47
8280;BME280;8335;42.646;23.380;2023-07-28T13:58:08;149038.19;;;30.26;28.90
8280;BME280;8335;42.646;23.380;2023-07-28T14:00:36;149048.31;;;30.30;29.56
8280;BME280;8335;42.646;23.380;2023-07-28T14:03:03;149052.06;;;30.31;29.72
8280;BME280;8335;42.646;23.380;2023-07-28T14:05:30;149060.88;;;30.35;29.24
8280;BME280;8335;42.646;23.380;2023-07-28T14:07:56;149038.19;;;30.26;29.54
8280;BME280;8335;42.646;23.380;2023-07-28T14:10:23;149038.19;;;30.26;29.04
8280;BME280;8335;42.646;23.380;2023-07-28T14:12:50;149048.31;;;30.30;29.37
8280;BME280;8335;42.646;23.380;2023-07-28T14:15:17;149044.50;;;30.28;29.66
8280;BME280;8335;42.646;23.380;2023-07-28T14:17:45;149031.91;;;30.23;30.08
8280;BME280;8335;42.646;23.380;2023-07-28T14:20:11;149029.41;;;30.22;29.54
8280;BME280;8335;42.646;23.380;2023-07-28T14:22:38;149043.22;;;30.28;29.44
8280;BME280;8335;42.646;23.380;2023-07-28T14:25:05;149060.88;;;30.35;29.45